Kendall, Kansas
Current Conditions -  °F | °C
As of 7:35 PM on Wednesday 17 Dec 2014 (Local Time) from K3K3 Reporting Station
Overcast Overcast  
Wind Chill: 27°   Ceiling: 800
Heat Index: 34°   Visibility: 10mi
Dew Point: 32°   Wind: 8mph
Humidity: 93%   Direction: 60°ENE
Pressure: 30.01"   Gusts: NA
Location:  37.93°N, 101.55°W
Report Text: K3K3 180235Z AUTO 06007KT 10SM BKN008 OVC030 01/00 A3001 RMK AO2
Loading
Personal Weather Stations






























Interactive Weather Map New forecast layout! Learn more

10-Day Weather Forecast

Advertisements
Track Severe Weather on mobile